Hillsdale, Wisconsin
Current Conditions -  °F | °C
As of 3:15 AM on Monday 20 Oct 2014 (Local Time) from KRPD Reporting Station
Clear Clear  
Wind Chill: 46°   Ceiling: Unl
Heat Index: 46°   Visibility: 10mi
Dew Point: 40°   Wind: 3mph
Humidity: 79%   Direction: 280°W
Pressure: 29.86"   Gusts: NA
Location:  45.32°N, 91.86°W
Report Text: KRPD 200815Z AUTO 28003KT 10SM CLR 08/04 A2986 RMK AO2 T00790044
Loading
Personal Weather Stations






























Interactive Weather Map
Tropical Storm Tracking
New forecast layout! Learn more

10-Day Weather Forecast

Advertisements
Track Severe Weather on mobile